Impacts METAR Board
IDs:

KMSY - New Orleans/Armstron, LA, US

Updated at: 2000 UTC 13 Aug 2020
Potential Impact None Slight Moderate High
Time 13/08Z 13/09Z 13/10Z 13/11Z 13/12Z 13/13Z 13/14Z 13/15Z 13/16Z 13/17Z 13/18Z 13/19Z 13/20Z
Temp79 78 78 78 79 83 86 90 87 89 79 80 83
Dewpt75 75 75 75 76 77 77 76 75 76 73 73 75
Altim29.98 29.98 29.98 29.99 30.00 30.01 30.02 30.03 30.03 30.01 30.01 30.00 29.97
VIS10 10 10 10 10 10 10 10 10 10 7 10 10
CIG-- -- 250 250 -- -- -- 150 150 150 150 160 190
CoverSCTSCTBKNBKNSCTSCTSCTBKNBKNBKNBKNBKNBKN
FltCatVFRVFRVFRVFRVFRVFRVFRVFRVFRVFRVFRVFRVFR
WX--------------------------
WDir0240028000220300030200140180
WSpd0 3 0 3 0 0 4 6 0 6 6 10 7
WGst-- -- -- -- -- -- -- -- -- -- -- -- --
R01/19
XWnd VRB 2 VRB 3 VRB VRB 2 6 VRB -2 1 -8 -2
HWnd VRB -2 VRB -0 VRB VRB -4 2 VRB 6 -6 -6 -7
R10/28
XWnd VRB -2 VRB -0 VRB VRB -4 2 VRB 6 -6 -6 -7
HWnd VRB -2 VRB -3 VRB VRB -2 -6 VRB 2 -1 8 2
Raw hourly METARs
KMSY 130753Z 00000KT 10SM FEW020 SCT250 26/24 A2998 RMK AO2 SLP156 T02610239
KMSY 130853Z 24003KT 10SM FEW020 SCT250 26/24 A2998 RMK AO2 SLP156 T02560239 55004
KMSY 130953Z 00000KT 10SM FEW020 BKN250 26/24 A2998 RMK AO2 SLP155 T02560239
KMSY 131053Z 28003KT 10SM FEW020 FEW150 BKN250 26/24 A2999 RMK AO2 SLP158 T02560239
KMSY 131153Z 00000KT 10SM FEW020 FEW150 SCT250 26/24 A3000 RMK AO2 SLP163 CB DSNT SE AND S AND SW 70001 T02610244 10267 20244 53006
KMSY 131253Z 00000KT 10SM FEW020 FEW150 SCT250 28/25 A3001 RMK AO2 SLP166 CB DSNT SE AND S AND SW AND W T02830250
KMSY 131353Z 22004KT 10SM FEW023 FEW150 SCT250 30/25 A3002 RMK AO2 SLP168 CB DSNT E AND SE AND S AND SW AND W T03000250
KMSY 131453Z 30006KT 10SM SCT027 BKN150 BKN250 32/24 A3003 RMK AO2 SLP170 CB DSNT SE-S T03220244 51007
KMSY 131553Z 00000KT 10SM SCT028CB BKN150 BKN250 31/24 A3003 RMK AO2 SLP173 CB OHD AND E AND S AND W STNRY CB DSNT N AND S AND NW T03060239
KMSY 131701Z 03006KT 10SM SCT028CB BKN150 BKN250 32/24 A3001 RMK AO2 LTG DSNT ALQDS CB W STNRY CB DSNT ALQDS T03170244
KMSY 131753Z 20006KT 7SM SCT020CB SCT048 BKN150 BKN250 26/23 A3001 RMK AO2 PK WND 26030/1717 WSHFT 1716 LTG DSNT ALQDS RAB03E51 TSB12E50 SLP166 CB E-SE AND SW-W STNRY CB DSNT NW-N AND NE P0127 60127 T02610228 10333 2
KMSY 131853Z COR 14010KT 10SM FEW030 FEW060 FEW110 BKN160 27/23 A3000 RMK AO2 LTG DSNT ALQDS RAB02E37 TSB02E40 SLP162 CB DSNT N-E-S-SW AND W AND NW SHRA DSNT SE-S P0000 T02670228
KMSY 131953Z 18007KT 10SM FEW028 FEW075 BKN190 BKN240 28/24 A2997 RMK AO2 LTG DSNT ALQDS SLP153 CB DSNT W-N-NE AND S T02830239



Page loaded:  20:54 UTC  |   01:54 PM Pacific  |   02:54 PM Mountain  |   03:54 PM Central  |   04:54 PM Eastern

 

ADVISORIES

FORECASTS

FORECASTS

OBSERVATIONS

USER TOOLS

ABOUT US